createdAt,value
2018-11-07T00:00:33.666Z,8.37
2018-11-07T00:01:08.015Z,8.34
2018-11-07T00:01:42.368Z,8.33
2018-11-07T00:02:16.675Z,8.30
2018-11-07T00:02:51.060Z,8.31
2018-11-07T00:03:25.873Z,8.31
2018-11-07T00:04:00.246Z,8.28
2018-11-07T00:04:35.124Z,8.30
2018-11-07T00:05:09.741Z,8.27
2018-11-07T00:05:44.540Z,8.30
2018-11-07T00:06:18.889Z,8.30
2018-11-07T00:06:53.201Z,8.30
2018-11-07T00:07:27.563Z,8.29
2018-11-07T00:08:02.192Z,8.28
2018-11-07T00:08:36.681Z,8.31
2018-11-07T00:09:11.293Z,8.28
2018-11-07T00:09:45.597Z,8.29
2018-11-07T00:10:19.899Z,8.29
2018-11-07T00:10:54.228Z,8.29
2018-11-07T00:11:28.545Z,8.30
2018-11-07T00:12:02.837Z,8.28
2018-11-07T00:12:37.365Z,8.27
2018-11-07T00:13:11.887Z,8.30
2018-11-07T00:13:46.190Z,8.32
2018-11-07T00:14:20.791Z,8.28
2018-11-07T00:14:55.113Z,8.25
2018-11-07T00:15:29.525Z,8.26
2018-11-07T00:16:04.233Z,8.30
2018-11-07T00:16:38.593Z,8.32
2018-11-07T00:17:13.295Z,8.36
2018-11-07T00:17:47.594Z,8.33
2018-11-07T00:18:22.053Z,8.29
2018-11-07T00:18:56.413Z,8.37
2018-11-07T00:19:30.836Z,8.38
2018-11-07T00:20:06.696Z,8.35
2018-11-07T00:20:41.286Z,8.35
2018-11-07T00:21:15.605Z,8.32
2018-11-07T00:21:50.035Z,8.35
2018-11-07T00:22:24.345Z,8.35
2018-11-07T00:22:59.163Z,8.35
2018-11-07T00:23:33.508Z,8.33
2018-11-07T00:24:07.857Z,8.41
2018-11-07T00:24:42.412Z,8.39
2018-11-07T00:25:16.776Z,8.48
2018-11-07T00:25:51.252Z,8.47
2018-11-07T00:26:25.737Z,8.52
2018-11-07T00:27:00.276Z,8.57
2018-11-07T00:27:34.632Z,8.56
2018-11-07T00:28:08.991Z,8.55
2018-11-07T00:28:43.345Z,8.51
2018-11-07T00:29:17.669Z,8.47
2018-11-07T00:29:52.027Z,8.45
2018-11-07T00:30:26.341Z,8.43
2018-11-07T00:31:00.680Z,8.46
2018-11-07T00:31:35.089Z,8.44
2018-11-07T00:32:09.424Z,8.52
2018-11-07T00:32:43.780Z,8.52
2018-11-07T00:33:18.268Z,8.49
2018-11-07T00:33:52.810Z,8.52
2018-11-07T00:34:27.289Z,8.51
2018-11-07T00:35:01.675Z,8.48
2018-11-07T00:35:36.141Z,8.46
2018-11-07T00:36:10.506Z,8.43
2018-11-07T00:36:44.851Z,8.48
2018-11-07T00:37:19.340Z,8.51
2018-11-07T00:37:53.695Z,8.52
2018-11-07T00:38:28.045Z,8.51
2018-11-07T00:39:02.376Z,8.46
2018-11-07T00:39:36.710Z,8.44
2018-11-07T00:40:11.406Z,8.44
2018-11-07T00:40:45.802Z,8.44
2018-11-07T00:41:20.370Z,8.43
2018-11-07T00:41:54.685Z,8.42
2018-11-07T00:42:29.130Z,8.39
2018-11-07T00:43:03.583Z,8.32
2018-11-07T00:43:38.161Z,8.38
2018-11-07T00:44:12.638Z,8.33
2018-11-07T00:44:47.020Z,8.30
2018-11-07T00:45:21.484Z,8.31
2018-11-07T00:45:56.256Z,8.30
2018-11-07T00:46:32.812Z,8.28
2018-11-07T00:47:07.157Z,8.29
2018-11-07T00:47:41.780Z,8.23
2018-11-07T00:48:16.164Z,8.22
2018-11-07T00:48:50.567Z,8.21
2018-11-07T00:49:24.940Z,8.19
2018-11-07T00:49:59.475Z,8.19
2018-11-07T00:50:33.844Z,8.16
2018-11-07T00:51:08.220Z,8.09
2018-11-07T00:51:42.568Z,8.11
2018-11-07T00:52:16.963Z,8.09
2018-11-07T00:52:51.297Z,8.07
2018-11-07T00:53:25.644Z,8.01
2018-11-07T00:53:59.967Z,8.05
2018-11-07T00:54:34.354Z,8.05
2018-11-07T00:55:09.316Z,8.01
2018-11-07T00:55:43.696Z,8.03
2018-11-07T00:56:18.188Z,8.04
2018-11-07T00:56:52.556Z,8.05
2018-11-07T00:57:27.263Z,7.99
2018-11-07T00:58:01.655Z,8.03
2018-11-07T00:58:36.275Z,8.01
2018-11-07T00:59:10.682Z,8.00
2018-11-07T00:59:45.048Z,7.98
2018-11-07T01:00:20.415Z,7.98
2018-11-07T01:00:54.741Z,7.96
2018-11-07T01:01:29.091Z,7.95
2018-11-07T01:02:03.889Z,7.95
2018-11-07T01:02:38.268Z,7.96
2018-11-07T01:03:12.771Z,7.96
2018-11-07T01:03:47.201Z,7.96
2018-11-07T01:04:21.512Z,7.95
2018-11-07T01:04:55.863Z,7.90
2018-11-07T01:05:30.241Z,7.89
2018-11-07T01:06:04.737Z,7.90
2018-11-07T01:06:39.247Z,7.91
2018-11-07T01:07:13.611Z,7.88
2018-11-07T01:07:48.700Z,7.92
2018-11-07T01:08:23.144Z,7.91
2018-11-07T01:08:57.487Z,7.91
2018-11-07T01:09:31.898Z,7.93
2018-11-07T01:10:07.316Z,7.90
2018-11-07T01:10:41.710Z,7.95
2018-11-07T01:11:16.058Z,7.94
2018-11-07T01:11:50.433Z,7.90
2018-11-07T01:12:24.773Z,7.90
2018-11-07T01:12:59.176Z,7.91
2018-11-07T01:13:33.553Z,7.88
2018-11-07T01:14:08.197Z,7.92
2018-11-07T01:14:42.704Z,7.90
2018-11-07T01:15:17.077Z,7.87
2018-11-07T01:15:51.437Z,7.86
2018-11-07T01:16:25.963Z,7.87
2018-11-07T01:17:00.468Z,7.89
2018-11-07T01:17:34.871Z,7.86
2018-11-07T01:18:09.216Z,7.90
2018-11-07T01:18:43.614Z,7.95
2018-11-07T01:19:18.019Z,7.90
2018-11-07T01:19:52.396Z,7.92
2018-11-07T01:20:27.756Z,7.91
2018-11-07T01:21:02.236Z,7.91
2018-11-07T01:21:36.587Z,7.98
2018-11-07T01:22:11.077Z,7.99
2018-11-07T01:22:45.639Z,7.95
2018-11-07T01:23:20.001Z,7.97
2018-11-07T01:23:54.367Z,7.93
2018-11-07T01:24:29.258Z,7.95
2018-11-07T01:25:03.640Z,7.92
2018-11-07T01:25:38.152Z,8.00
2018-11-07T01:26:12.550Z,7.99
2018-11-07T01:26:47.001Z,8.03
2018-11-07T01:27:21.421Z,8.04
2018-11-07T01:27:55.800Z,8.05
2018-11-07T01:28:30.154Z,8.06
2018-11-07T01:29:04.519Z,8.00
2018-11-07T01:29:38.933Z,7.97
2018-11-07T01:30:14.537Z,8.01
2018-11-07T01:30:48.903Z,8.00
2018-11-07T01:31:23.249Z,8.00
2018-11-07T01:31:57.645Z,7.94
2018-11-07T01:32:31.993Z,7.96
2018-11-07T01:33:07.233Z,7.91
2018-11-07T01:33:41.760Z,7.88
2018-11-07T01:34:16.129Z,7.89
2018-11-07T01:34:50.469Z,7.88
2018-11-07T01:35:24.808Z,7.91
2018-11-07T01:35:59.163Z,7.92
2018-11-07T01:36:33.503Z,7.90
2018-11-07T01:37:08.000Z,7.83
2018-11-07T01:37:42.553Z,7.84
2018-11-07T01:38:16.972Z,7.80
2018-11-07T01:38:51.354Z,7.83
2018-11-07T01:39:25.710Z,7.85
2018-11-07T01:40:00.048Z,7.81
2018-11-07T01:40:34.533Z,7.90
2018-11-07T01:41:08.949Z,7.84
2018-11-07T01:41:43.478Z,7.87
2018-11-07T01:42:18.020Z,7.88
2018-11-07T01:42:52.357Z,7.90
2018-11-07T01:43:26.692Z,7.91
2018-11-07T01:44:01.117Z,7.88
2018-11-07T01:44:35.489Z,7.87
2018-11-07T01:45:10.744Z,7.88
2018-11-07T01:45:45.120Z,7.91
2018-11-07T01:46:19.561Z,7.95
2018-11-07T01:46:53.896Z,7.92
2018-11-07T01:47:28.223Z,7.88
2018-11-07T01:48:02.565Z,7.84
2018-11-07T01:48:36.905Z,7.83
2018-11-07T01:49:11.319Z,7.86
2018-11-07T01:49:45.743Z,7.91
2018-11-07T01:50:20.079Z,7.89
2018-11-07T01:50:54.429Z,7.89
2018-11-07T01:51:28.763Z,7.90
2018-11-07T01:52:03.094Z,7.87
2018-11-07T01:52:37.444Z,7.86
2018-11-07T01:53:11.823Z,7.87
2018-11-07T01:53:46.231Z,7.85
2018-11-07T01:54:20.620Z,7.79
2018-11-07T01:54:54.960Z,7.79
2018-11-07T01:55:29.304Z,7.76
2018-11-07T01:56:03.634Z,7.75
2018-11-07T01:56:37.993Z,7.74
2018-11-07T01:57:12.357Z,7.76
2018-11-07T01:57:46.739Z,7.76
2018-11-07T01:58:21.195Z,7.69
2018-11-07T01:58:55.540Z,7.70
2018-11-07T01:59:29.887Z,7.69
2018-11-07T02:00:05.277Z,7.69
2018-11-07T02:00:40.021Z,7.72
2018-11-07T02:01:14.499Z,7.70
2018-11-07T02:01:48.875Z,7.72
2018-11-07T02:02:23.208Z,7.72
2018-11-07T02:02:57.535Z,7.76
2018-11-07T02:03:31.931Z,7.69
2018-11-07T02:04:06.320Z,7.72
2018-11-07T02:04:40.702Z,7.71
2018-11-07T02:05:15.211Z,7.69
2018-11-07T02:05:49.548Z,7.73
2018-11-07T02:06:23.924Z,7.72
2018-11-07T02:06:58.252Z,7.71
2018-11-07T02:07:32.601Z,7.69
2018-11-07T02:08:07.306Z,7.66
2018-11-07T02:08:41.754Z,7.66
2018-11-07T02:09:16.167Z,7.63
2018-11-07T02:09:50.610Z,7.62
2018-11-07T02:10:24.952Z,7.60
2018-11-07T02:10:59.975Z,7.53
2018-11-07T02:11:34.348Z,7.57
2018-11-07T02:12:08.688Z,7.67
2018-11-07T02:12:43.066Z,7.61
2018-11-07T02:13:17.459Z,7.60
2018-11-07T02:13:51.787Z,7.61
2018-11-07T02:14:26.133Z,7.61
2018-11-07T02:15:00.464Z,7.67
2018-11-07T02:15:34.800Z,7.63
2018-11-07T02:16:09.249Z,7.55
2018-11-07T02:16:43.670Z,7.58
2018-11-07T02:17:18.041Z,7.61
2018-11-07T02:17:52.378Z,7.54
2018-11-07T02:18:26.797Z,7.48
2018-11-07T02:19:01.175Z,7.51
2018-11-07T02:19:36.724Z,7.47
2018-11-07T02:20:12.164Z,7.46
2018-11-07T02:20:46.664Z,7.44
2018-11-07T02:21:21.000Z,7.44
2018-11-07T02:21:55.353Z,7.49
2018-11-07T02:22:29.771Z,7.45
2018-11-07T02:23:04.195Z,7.42
2018-11-07T02:23:38.626Z,7.47
2018-11-07T02:24:13.131Z,7.43
2018-11-07T02:24:47.496Z,7.40
2018-11-07T02:25:22.204Z,7.40
2018-11-07T02:25:56.545Z,7.39
2018-11-07T02:26:31.054Z,7.35
2018-11-07T02:27:05.968Z,7.37
2018-11-07T02:27:40.844Z,7.34
2018-11-07T02:28:15.341Z,7.39
2018-11-07T02:28:49.726Z,7.46
2018-11-07T02:29:24.108Z,7.41
2018-11-07T02:29:58.445Z,7.39
2018-11-07T02:30:32.791Z,7.34
2018-11-07T02:31:07.121Z,7.38
2018-11-07T02:31:42.860Z,7.37
2018-11-07T02:32:17.269Z,7.36
2018-11-07T02:32:51.639Z,7.37
2018-11-07T02:33:25.989Z,7.40
2018-11-07T02:34:00.357Z,7.41
2018-11-07T02:34:34.683Z,7.32
2018-11-07T02:35:09.036Z,7.31
2018-11-07T02:35:43.597Z,7.40
2018-11-07T02:36:18.005Z,7.50
2018-11-07T02:36:52.457Z,7.43
2018-11-07T02:37:26.920Z,7.37
2018-11-07T02:38:01.256Z,7.45
2018-11-07T02:38:35.633Z,7.44
2018-11-07T02:39:13.000Z,7.40
2018-11-07T02:39:47.769Z,7.45
2018-11-07T02:40:22.107Z,7.60
2018-11-07T02:40:56.798Z,7.67
2018-11-07T02:41:31.165Z,7.71
2018-11-07T02:42:05.576Z,7.68
2018-11-07T02:42:40.002Z,7.66
2018-11-07T02:43:14.405Z,7.59
2018-11-07T02:43:48.796Z,7.54
2018-11-07T02:44:23.495Z,7.48
2018-11-07T02:44:58.013Z,7.47
2018-11-07T02:45:32.344Z,7.42
2018-11-07T02:46:07.364Z,7.37
2018-11-07T02:46:43.015Z,7.36
2018-11-07T02:47:17.382Z,7.34
2018-11-07T02:47:51.809Z,7.33
2018-11-07T02:48:26.168Z,7.41
2018-11-07T02:49:00.570Z,7.43
2018-11-07T02:49:34.891Z,7.40
2018-11-07T02:50:10.082Z,7.49
2018-11-07T02:50:44.463Z,7.44
2018-11-07T02:51:18.805Z,7.38
2018-11-07T02:51:53.154Z,7.40
2018-11-07T02:52:27.525Z,7.39
2018-11-07T02:53:01.877Z,7.37
2018-11-07T02:53:36.346Z,7.34
2018-11-07T02:54:10.953Z,7.34
2018-11-07T02:54:45.402Z,7.33
2018-11-07T02:55:19.832Z,7.32
2018-11-07T02:55:54.180Z,7.28
2018-11-07T02:56:28.580Z,7.28
2018-11-07T02:57:02.928Z,7.28
2018-11-07T02:57:37.509Z,7.28
2018-11-07T02:58:11.964Z,7.28
2018-11-07T02:58:46.505Z,7.28
2018-11-07T02:59:20.865Z,7.26
2018-11-07T02:59:55.209Z,7.26
2018-11-07T03:00:29.544Z,7.24
2018-11-07T03:01:04.028Z,7.21
2018-11-07T03:01:38.508Z,7.20
2018-11-07T03:02:12.879Z,7.17
2018-11-07T03:02:47.204Z,7.18
2018-11-07T03:03:21.604Z,7.18
2018-11-07T03:03:56.457Z,7.18
2018-11-07T03:04:30.799Z,7.17
2018-11-07T03:05:05.195Z,7.20
2018-11-07T03:05:39.585Z,7.18
2018-11-07T03:06:14.094Z,7.21
2018-11-07T03:06:48.604Z,7.22
2018-11-07T03:07:23.029Z,7.23
2018-11-07T03:07:57.376Z,7.22
2018-11-07T03:08:32.596Z,7.20
2018-11-07T03:09:09.508Z,7.18
2018-11-07T03:09:44.127Z,7.17
2018-11-07T03:10:18.530Z,7.17
2018-11-07T03:10:53.077Z,7.17
2018-11-07T03:11:27.391Z,7.17
2018-11-07T03:12:01.764Z,7.15
2018-11-07T03:12:36.104Z,7.22
2018-11-07T03:13:10.469Z,7.21
2018-11-07T03:13:44.899Z,7.18
2018-11-07T03:14:19.300Z,7.17
2018-11-07T03:14:53.608Z,7.21
2018-11-07T03:15:27.956Z,7.22
2018-11-07T03:16:02.256Z,7.17
2018-11-07T03:16:36.798Z,7.18
2018-11-07T03:17:11.187Z,7.21
2018-11-07T03:17:45.553Z,7.20
2018-11-07T03:18:19.867Z,7.19
2018-11-07T03:18:54.214Z,7.27
2018-11-07T03:19:28.544Z,7.16
2018-11-07T03:20:03.281Z,7.26
2018-11-07T03:20:37.579Z,7.24
2018-11-07T03:21:12.184Z,7.23
2018-11-07T03:21:46.540Z,7.26
2018-11-07T03:22:20.841Z,7.24
2018-11-07T03:22:55.181Z,7.26
2018-11-07T03:23:29.476Z,7.22
2018-11-07T03:24:04.150Z,7.16
2018-11-07T03:24:38.527Z,7.21
2018-11-07T03:25:12.911Z,7.19
2018-11-07T03:25:47.311Z,7.15
2018-11-07T03:26:21.663Z,7.13
2018-11-07T03:26:56.024Z,7.08
2018-11-07T03:27:30.345Z,7.13
2018-11-07T03:28:04.774Z,7.12
2018-11-07T03:28:39.325Z,7.10
2018-11-07T03:29:13.656Z,7.15
2018-11-07T03:29:48.249Z,7.13
2018-11-07T03:30:22.557Z,7.10
2018-11-07T03:30:56.867Z,7.09
2018-11-07T03:31:31.188Z,7.08
2018-11-07T03:32:05.927Z,7.09
2018-11-07T03:32:40.348Z,7.13
2018-11-07T03:33:14.743Z,7.09
2018-11-07T03:33:49.261Z,7.12
2018-11-07T03:34:23.584Z,7.12
2018-11-07T03:34:58.024Z,7.11
2018-11-07T03:35:32.382Z,7.11
2018-11-07T03:36:06.892Z,7.07
2018-11-07T03:36:41.358Z,7.06
2018-11-07T03:37:15.728Z,7.04
2018-11-07T03:37:50.184Z,6.98
2018-11-07T03:38:24.495Z,7.02
2018-11-07T03:38:58.933Z,7.04
2018-11-07T03:39:33.305Z,7.03
2018-11-07T03:40:08.237Z,7.06
2018-11-07T03:40:42.612Z,7.03
2018-11-07T03:41:16.989Z,7.02
2018-11-07T03:41:51.331Z,7.02
2018-11-07T03:42:25.653Z,7.01
2018-11-07T03:42:59.948Z,6.99
2018-11-07T03:43:34.251Z,6.94
2018-11-07T03:44:09.399Z,6.97
2018-11-07T03:44:43.761Z,7.03
2018-11-07T03:45:19.562Z,7.05
2018-11-07T03:45:57.763Z,7.04
2018-11-07T03:46:32.069Z,7.06
2018-11-07T03:47:06.598Z,7.01
2018-11-07T03:47:41.259Z,6.96
2018-11-07T03:48:15.580Z,6.99
2018-11-07T03:48:49.917Z,7.02
2018-11-07T03:49:24.203Z,7.01
2018-11-07T03:49:58.528Z,6.99
2018-11-07T03:50:32.831Z,6.99
2018-11-07T03:51:07.157Z,6.98
2018-11-07T03:51:41.483Z,6.97
2018-11-07T03:52:15.901Z,6.96
2018-11-07T03:52:50.385Z,6.95
2018-11-07T03:53:24.877Z,6.98
2018-11-07T03:53:59.194Z,6.95
2018-11-07T03:54:33.519Z,6.93
2018-11-07T03:55:08.400Z,6.90
2018-11-07T03:55:42.829Z,6.92
2018-11-07T03:56:17.173Z,6.90
2018-11-07T03:56:51.563Z,6.90
2018-11-07T03:57:25.867Z,6.94
2018-11-07T03:58:00.168Z,6.91
2018-11-07T03:58:34.562Z,6.90
2018-11-07T03:59:09.130Z,6.94
2018-11-07T03:59:43.559Z,6.92
2018-11-07T04:00:17.954Z,6.91
2018-11-07T04:00:52.393Z,6.95
2018-11-07T04:01:26.717Z,6.91
2018-11-07T04:02:01.412Z,6.91
2018-11-07T04:02:35.741Z,6.89
2018-11-07T04:03:10.132Z,6.98
2018-11-07T04:03:44.503Z,6.94
2018-11-07T04:04:18.902Z,6.91
2018-11-07T04:04:53.316Z,6.94
2018-11-07T04:05:27.652Z,6.90
2018-11-07T04:06:01.997Z,6.89
2018-11-07T04:06:36.324Z,6.86
2018-11-07T04:07:10.702Z,6.85
2018-11-07T04:07:45.105Z,6.86
2018-11-07T04:08:19.421Z,6.85
2018-11-07T04:08:53.781Z,6.94
2018-11-07T04:09:28.093Z,6.90
2018-11-07T04:10:02.444Z,6.87
2018-11-07T04:10:36.840Z,6.90
2018-11-07T04:11:11.442Z,6.86
2018-11-07T04:11:45.877Z,6.85
2018-11-07T04:12:20.260Z,6.85
2018-11-07T04:12:54.632Z,6.88
2018-11-07T04:13:28.943Z,6.92
2018-11-07T04:14:03.310Z,6.90
2018-11-07T04:14:37.625Z,6.91
2018-11-07T04:15:12.009Z,6.93
2018-11-07T04:15:46.482Z,6.90
2018-11-07T04:16:20.937Z,6.85
2018-11-07T04:16:55.339Z,6.84
2018-11-07T04:17:29.675Z,6.83
2018-11-07T04:18:04.067Z,6.95
2018-11-07T04:18:38.448Z,6.95
2018-11-07T04:19:12.884Z,6.86
2018-11-07T04:19:47.275Z,6.82
2018-11-07T04:20:21.628Z,6.81
2018-11-07T04:20:56.013Z,6.78
2018-11-07T04:21:30.372Z,6.79
2018-11-07T04:22:04.946Z,6.75
2018-11-07T04:22:39.848Z,6.70
2018-11-07T04:23:14.471Z,6.74
2018-11-07T04:24:05.654Z,6.70
2018-11-07T04:24:40.037Z,6.72
2018-11-07T04:25:14.500Z,6.69
2018-11-07T04:25:48.904Z,6.66
2018-11-07T04:26:23.239Z,6.66
2018-11-07T04:26:57.585Z,6.71
2018-11-07T04:27:32.126Z,6.68
2018-11-07T04:28:06.792Z,6.67
2018-11-07T04:28:41.166Z,6.66
2018-11-07T04:29:15.579Z,6.62
2018-11-07T04:29:50.063Z,6.58
2018-11-07T04:30:24.472Z,6.57
2018-11-07T04:30:58.884Z,6.57
2018-11-07T04:31:33.231Z,6.55
2018-11-07T04:32:07.586Z,6.56
2018-11-07T04:32:42.540Z,6.62
2018-11-07T04:33:17.264Z,6.61
2018-11-07T04:33:51.744Z,6.68
2018-11-07T04:34:26.077Z,6.80
2018-11-07T04:35:00.424Z,6.73
2018-11-07T04:35:34.780Z,6.71
2018-11-07T04:36:09.176Z,6.68
2018-11-07T04:36:43.549Z,6.64
2018-11-07T04:37:17.930Z,6.62
2018-11-07T04:37:52.260Z,6.60
2018-11-07T04:38:26.599Z,6.55
2018-11-07T04:39:00.992Z,6.54
2018-11-07T04:39:35.469Z,6.48
2018-11-07T04:40:12.659Z,6.50
2018-11-07T04:40:47.013Z,6.52
2018-11-07T04:41:21.400Z,6.57
2018-11-07T04:41:55.759Z,6.54
2018-11-07T04:42:30.115Z,6.52
2018-11-07T04:43:04.835Z,6.51
2018-11-07T04:43:39.296Z,6.64
2018-11-07T04:44:13.746Z,6.56
2018-11-07T04:44:48.104Z,6.56
2018-11-07T04:45:22.463Z,6.55
2018-11-07T04:45:56.820Z,6.51
2018-11-07T04:46:31.176Z,6.48
2018-11-07T04:47:06.674Z,6.51
2018-11-07T04:47:41.049Z,6.48
2018-11-07T04:48:15.464Z,6.51
2018-11-07T04:48:49.875Z,6.50
2018-11-07T04:49:24.226Z,6.48
2018-11-07T04:49:58.568Z,6.46
2018-11-07T04:50:32.883Z,6.49
2018-11-07T04:51:07.712Z,6.50
2018-11-07T04:51:42.313Z,6.50
2018-11-07T04:52:16.730Z,6.51
2018-11-07T04:52:51.099Z,6.50
2018-11-07T04:53:25.437Z,6.49
2018-11-07T04:53:59.840Z,6.49
2018-11-07T04:54:34.259Z,6.52
2018-11-07T04:55:08.620Z,6.52
2018-11-07T04:55:43.118Z,6.49
2018-11-07T04:56:17.527Z,6.52
2018-11-07T04:56:51.869Z,6.50
2018-11-07T04:57:26.229Z,6.54
2018-11-07T04:58:00.579Z,6.51
2018-11-07T04:58:35.356Z,6.52
2018-11-07T04:59:09.703Z,6.52
2018-11-07T04:59:44.118Z,6.55
2018-11-07T05:00:18.636Z,6.57
2018-11-07T05:00:53.137Z,6.57
2018-11-07T05:01:27.591Z,6.55
2018-11-07T05:02:01.999Z,6.59
2018-11-07T05:02:36.401Z,6.56
2018-11-07T05:03:10.846Z,6.60
2018-11-07T05:03:45.468Z,6.57
2018-11-07T05:04:19.858Z,6.57
2018-11-07T05:04:54.197Z,6.60
2018-11-07T05:05:28.526Z,6.58
2018-11-07T05:06:02.863Z,6.55
2018-11-07T05:06:37.242Z,6.54
2018-11-07T05:07:11.736Z,6.51
2018-11-07T05:07:46.571Z,6.52
2018-11-07T05:08:21.141Z,6.52
2018-11-07T05:08:55.664Z,6.53
2018-11-07T05:09:29.973Z,6.49
2018-11-07T05:10:04.648Z,6.54
2018-11-07T05:10:39.058Z,6.60
2018-11-07T05:11:13.473Z,6.58
2018-11-07T05:11:47.868Z,6.53
2018-11-07T05:12:22.216Z,6.52
2018-11-07T05:12:56.592Z,6.49
2018-11-07T05:13:30.908Z,6.51
2018-11-07T05:14:05.431Z,6.52
2018-11-07T05:14:40.097Z,6.47
2018-11-07T05:15:14.497Z,6.48
2018-11-07T05:15:48.868Z,6.51
2018-11-07T05:16:23.222Z,6.51
2018-11-07T05:16:57.596Z,6.54
2018-11-07T05:17:31.933Z,6.50
2018-11-07T05:18:06.285Z,6.52
2018-11-07T05:18:40.820Z,6.51
2018-11-07T05:19:16.085Z,6.52
2018-11-07T05:19:50.562Z,6.56
2018-11-07T05:20:25.036Z,6.56
2018-11-07T05:20:59.506Z,6.50
2018-11-07T05:21:33.838Z,6.52
2018-11-07T05:22:08.217Z,6.48
2018-11-07T05:22:42.608Z,6.52
2018-11-07T05:23:16.995Z,6.52
2018-11-07T05:23:51.295Z,6.54
2018-11-07T05:24:25.623Z,6.60
2018-11-07T05:25:00.045Z,6.60
2018-11-07T05:25:34.752Z,6.58
2018-11-07T05:26:09.207Z,6.60
2018-11-07T05:26:43.783Z,6.58
2018-11-07T05:27:18.224Z,6.54
2018-11-07T05:27:52.554Z,6.52
2018-11-07T05:28:26.891Z,6.51
2018-11-07T05:29:01.216Z,6.51
2018-11-07T05:29:35.568Z,6.58
2018-11-07T05:30:11.392Z,6.57
2018-11-07T05:30:45.816Z,6.58
2018-11-07T05:31:20.157Z,6.59
2018-11-07T05:31:54.535Z,6.61
2018-11-07T05:32:29.192Z,6.61
2018-11-07T05:33:03.542Z,6.60
2018-11-07T05:33:37.892Z,6.60
2018-11-07T05:34:12.744Z,6.61
2018-11-07T05:34:47.126Z,6.62
2018-11-07T05:35:21.478Z,6.62
2018-11-07T05:35:56.262Z,6.60
2018-11-07T05:36:30.556Z,6.58
2018-11-07T05:37:05.947Z,6.54
2018-11-07T05:37:40.451Z,6.56
2018-11-07T05:38:14.837Z,6.54
2018-11-07T05:38:49.196Z,6.59
2018-11-07T05:39:23.517Z,6.59
2018-11-07T05:39:57.814Z,6.56
2018-11-07T05:40:32.124Z,6.59
2018-11-07T05:41:06.443Z,6.58
2018-11-07T05:41:41.181Z,6.60
2018-11-07T05:42:15.768Z,6.62
2018-11-07T05:42:50.256Z,6.62
2018-11-07T05:43:24.604Z,6.58
2018-11-07T05:43:58.896Z,6.59
2018-11-07T05:44:33.236Z,6.58
2018-11-07T05:45:08.114Z,6.59
2018-11-07T05:45:42.691Z,6.58
2018-11-07T05:46:17.073Z,6.56
2018-11-07T05:46:51.411Z,6.53
2018-11-07T05:47:25.720Z,6.57
2018-11-07T05:48:00.071Z,6.56
2018-11-07T05:48:34.377Z,6.57
2018-11-07T05:49:08.762Z,6.58
2018-11-07T05:49:43.409Z,6.58
2018-11-07T05:50:17.807Z,6.58
2018-11-07T05:50:52.119Z,6.55
2018-11-07T05:51:26.468Z,6.52
2018-11-07T05:52:00.775Z,6.49
2018-11-07T05:52:35.279Z,6.49
2018-11-07T05:53:09.645Z,6.51
2018-11-07T05:53:44.172Z,6.47
2018-11-07T05:54:18.520Z,6.45
2018-11-07T05:54:52.840Z,6.46
2018-11-07T05:55:27.159Z,6.46
2018-11-07T05:56:01.497Z,6.43
2018-11-07T05:56:35.820Z,6.43
2018-11-07T05:57:10.249Z,6.42
2018-11-07T05:57:44.616Z,6.39
2018-11-07T05:58:19.171Z,6.36
2018-11-07T05:58:53.496Z,6.33
2018-11-07T05:59:28.046Z,6.35
2018-11-07T06:00:02.370Z,6.33
2018-11-07T06:00:36.783Z,6.35
2018-11-07T06:01:11.233Z,6.34
2018-11-07T06:01:45.751Z,6.34
2018-11-07T06:02:20.064Z,6.32
2018-11-07T06:02:54.404Z,6.33
2018-11-07T06:03:28.718Z,6.35
2018-11-07T06:04:03.057Z,6.34
2018-11-07T06:04:37.350Z,6.33
2018-11-07T06:05:12.537Z,6.29
2018-11-07T06:05:46.884Z,6.28
2018-11-07T06:06:21.196Z,6.24
2018-11-07T06:06:55.519Z,6.24
2018-11-07T06:07:29.852Z,6.22
2018-11-07T06:08:04.212Z,6.23
2018-11-07T06:08:38.615Z,6.23
2018-11-07T06:09:13.026Z,6.26
2018-11-07T06:09:47.389Z,6.28
2018-11-07T06:10:21.745Z,6.27
2018-11-07T06:10:56.097Z,6.27
2018-11-07T06:11:30.414Z,6.22
2018-11-07T06:12:04.815Z,6.33
2018-11-07T06:12:39.364Z,6.34
2018-11-07T06:13:13.773Z,6.31
2018-11-07T06:13:48.268Z,6.28
2018-11-07T06:14:22.740Z,6.27
2018-11-07T06:14:57.040Z,6.25
2018-11-07T06:15:31.404Z,6.23
2018-11-07T06:16:06.354Z,6.26
2018-11-07T06:16:41.064Z,6.26
2018-11-07T06:17:15.961Z,6.33
2018-11-07T06:17:50.429Z,6.38
2018-11-07T06:18:24.812Z,6.32
2018-11-07T06:18:59.271Z,6.31
2018-11-07T06:19:33.619Z,6.30
2018-11-07T06:20:09.255Z,6.29
2018-11-07T06:20:43.728Z,6.29
2018-11-07T06:21:19.960Z,6.27
2018-11-07T06:21:54.296Z,6.28
2018-11-07T06:22:28.693Z,6.28
2018-11-07T06:23:03.052Z,6.37
2018-11-07T06:23:37.694Z,6.33
2018-11-07T06:24:12.580Z,6.34
2018-11-07T06:24:47.188Z,6.32
2018-11-07T06:25:21.684Z,6.35
2018-11-07T06:25:56.027Z,6.37
2018-11-07T06:26:30.442Z,6.36
2018-11-07T06:27:05.523Z,6.35
2018-11-07T06:27:39.989Z,6.36
2018-11-07T06:28:14.438Z,6.34
2018-11-07T06:28:48.844Z,6.29
2018-11-07T06:29:23.343Z,6.30
2018-11-07T06:29:57.643Z,6.28
2018-11-07T06:30:32.000Z,6.27
2018-11-07T06:31:06.383Z,6.28
2018-11-07T06:31:40.839Z,6.28
2018-11-07T06:32:15.299Z,6.27
2018-11-07T06:32:49.664Z,6.29
2018-11-07T06:33:23.996Z,6.29
2018-11-07T06:33:58.530Z,6.28
2018-11-07T06:34:33.015Z,6.27
2018-11-07T06:35:09.247Z,6.28
2018-11-07T06:35:43.741Z,6.27
2018-11-07T06:36:18.093Z,6.33
2018-11-07T06:36:52.447Z,6.29
2018-11-07T06:37:26.809Z,6.27
2018-11-07T06:38:01.197Z,6.27
2018-11-07T06:38:35.596Z,6.26
2018-11-07T06:39:11.276Z,6.26
2018-11-07T06:39:45.688Z,6.30
2018-11-07T06:40:20.068Z,6.31
2018-11-07T06:40:54.394Z,6.40
2018-11-07T06:41:28.778Z,6.38
2018-11-07T06:42:03.130Z,6.32
2018-11-07T06:42:37.585Z,6.31
2018-11-07T06:43:12.043Z,6.31
2018-11-07T06:43:46.472Z,6.28
2018-11-07T06:44:21.049Z,6.27
2018-11-07T06:44:55.540Z,6.29
2018-11-07T06:45:29.904Z,6.37
2018-11-07T06:46:04.286Z,6.44
2018-11-07T06:46:38.757Z,6.51
2018-11-07T06:47:13.353Z,6.68
2018-11-07T06:47:47.744Z,6.70
2018-11-07T06:48:22.132Z,6.62
2018-11-07T06:48:56.533Z,6.58
2018-11-07T06:49:30.940Z,6.56
2018-11-07T06:50:07.893Z,6.58
2018-11-07T06:50:42.319Z,6.53
2018-11-07T06:51:16.713Z,6.56
2018-11-07T06:51:51.097Z,6.54
2018-11-07T06:52:25.448Z,6.50
2018-11-07T06:52:59.810Z,6.48
2018-11-07T06:53:34.128Z,6.49
2018-11-07T06:54:08.502Z,6.46
2018-11-07T06:54:42.929Z,6.53
2018-11-07T06:55:17.895Z,6.48
2018-11-07T06:55:52.501Z,6.47
2018-11-07T06:56:27.247Z,6.51
2018-11-07T06:57:01.708Z,6.51
2018-11-07T06:57:36.060Z,6.49
2018-11-07T06:58:10.559Z,6.48
2018-11-07T06:58:45.116Z,6.50
2018-11-07T06:59:19.493Z,6.53
2018-11-07T06:59:53.836Z,6.50
2018-11-07T07:00:28.205Z,6.50
2018-11-07T07:01:02.601Z,6.53
2018-11-07T07:01:36.952Z,6.53
2018-11-07T07:02:11.531Z,6.54
2018-11-07T07:02:47.226Z,6.51
2018-11-07T07:03:21.563Z,6.54
2018-11-07T07:03:55.909Z,6.54
2018-11-07T07:04:30.256Z,6.54
2018-11-07T07:05:05.510Z,6.54
2018-11-07T07:05:40.036Z,6.57
2018-11-07T07:06:14.741Z,6.58
2018-11-07T07:06:49.208Z,6.58
2018-11-07T07:07:23.669Z,6.62
2018-11-07T07:07:58.029Z,6.65
2018-11-07T07:08:32.381Z,6.67
2018-11-07T07:09:08.661Z,6.67
2018-11-07T07:09:43.123Z,6.69
2018-11-07T07:10:18.215Z,6.70
2018-11-07T07:10:52.569Z,6.69
2018-11-07T07:11:26.994Z,6.69
2018-11-07T07:12:01.329Z,6.71
2018-11-07T07:12:35.799Z,6.70
2018-11-07T07:13:10.262Z,6.68
2018-11-07T07:13:44.855Z,6.72
2018-11-07T07:14:19.364Z,6.70
2018-11-07T07:14:53.709Z,6.72
2018-11-07T07:15:28.080Z,6.75
2018-11-07T07:16:02.454Z,6.75
2018-11-07T07:16:36.810Z,6.74
2018-11-07T07:17:11.447Z,6.73
2018-11-07T07:17:46.302Z,6.76
2018-11-07T07:18:20.759Z,6.73
2018-11-07T07:18:55.090Z,6.74
2018-11-07T07:19:29.439Z,6.73
2018-11-07T07:20:03.864Z,6.76
2018-11-07T07:20:38.225Z,6.83
2018-11-07T07:21:13.045Z,6.79
2018-11-07T07:21:47.475Z,6.76
2018-11-07T07:22:21.816Z,6.76
2018-11-07T07:22:56.170Z,6.74
2018-11-07T07:23:30.490Z,6.74
2018-11-07T07:24:05.249Z,6.76
2018-11-07T07:24:39.621Z,6.74
2018-11-07T07:25:14.425Z,6.74
2018-11-07T07:25:48.835Z,6.74
2018-11-07T07:26:23.332Z,6.74
2018-11-07T07:26:57.725Z,6.74
2018-11-07T07:27:32.255Z,6.75
2018-11-07T07:28:06.663Z,6.74
2018-11-07T07:28:41.089Z,6.72
2018-11-07T07:29:15.548Z,6.75
2018-11-07T07:29:50.008Z,6.74
2018-11-07T07:30:24.519Z,6.76
2018-11-07T07:30:59.028Z,6.78
2018-11-07T07:31:33.397Z,6.78
2018-11-07T07:32:07.748Z,6.86
2018-11-07T07:32:43.143Z,6.87
2018-11-07T07:33:17.580Z,6.94
2018-11-07T07:33:52.269Z,6.93
2018-11-07T07:34:26.780Z,6.95
2018-11-07T07:35:01.168Z,6.93
2018-11-07T07:35:35.589Z,6.94
2018-11-07T07:36:10.075Z,6.95
2018-11-07T07:36:44.491Z,6.96
2018-11-07T07:37:18.832Z,7.00
2018-11-07T07:37:53.234Z,7.03
2018-11-07T07:38:27.810Z,7.04
2018-11-07T07:39:02.234Z,7.05
2018-11-07T07:39:36.582Z,7.06